EDT,Max TemperatureF,Mean TemperatureF,Min TemperatureF,Max Dew PointF,MeanDew PointF,Min DewpointF,Max Humidity, Mean Humidity, Min Humidity, Max Sea Level PressureIn, Mean Sea Level PressureIn, Min Sea Level PressureIn, Max VisibilityMiles, Mean VisibilityMiles, Min VisibilityMiles, Max Wind SpeedMPH, Mean Wind SpeedMPH, Max Gust SpeedMPH,PrecipitationIn, CloudCover, Events, WindDirDegrees
2013-10-1,73,56,39,62,47,39,100,79,57,30.04,29.97,29.88,10,4,0,8,2,12,0.00,2,Fog,193
2013-10-2,80,62,43,61,48,43,100,71,42,30.01,29.92,29.86,10,5,0,16,4,22,0.00,2,Fog,237
2013-10-3,70,54,38,53,45,39,100,73,45,30.14,30.07,30.03,10,5,0,12,2,14,0.00,0,Fog,167
2013-10-4,62,54,45,58,50,45,100,89,78,30.11,30.07,30.06,10,6,0,6,1,8,0.09,5,Fog-Rain,35
2013-10-5,61,57,53,55,50,45,100,81,62,30.13,30.11,30.07,10,10,10,7,2,8,0.00,8,,50
2013-10-6,59,56,53,57,53,45,100,81,62,30.14,30.10,30.04,10,8,2,7,1,9,0.50,8,Rain,14
2013-10-7,75,63,50,65,58,48,100,84,68,30.02,29.83,29.62,10,7,1,36,6,48,0.36,7,Rain,203
2013-10-8,64,50,36,47,41,36,100,70,39,30.40,30.22,29.95,10,8,1,15,3,20,0.00,0,,296
2013-10-9,65,49,32,43,36,31,100,64,28,30.49,30.42,30.36,10,6,0,9,1,13,0.00,0,Fog,99
2013-10-10,62,48,33,50,41,34,100,78,55,30.36,30.29,30.19,10,7,1,10,1,13,0.00,0,,67
2013-10-11,72,56,39,50,46,39,100,68,35,30.19,30.16,30.11,10,9,2,9,1,12,0.00,0,,14
2013-10-12,73,55,36,51,42,36,100,73,46,30.37,30.25,30.17,10,6,0,14,3,17,0.00,0,Fog,92
2013-10-13,67,55,42,50,45,39,100,74,48,30.43,30.37,30.32,10,6,0,10,2,16,0.00,4,Fog,176
2013-10-14,64,55,46,55,50,46,93,80,67,30.36,30.31,30.25,10,10,3,9,3,12,T,7,,191
2013-10-15,64,57,49,55,53,48,100,84,67,30.27,30.20,30.12,10,8,0,8,1,9,T,6,Fog,54
2013-10-16,63,55,47,55,50,46,96,82,67,30.12,30.01,29.85,10,10,2,15,4,21,T,4,Rain,197
2013-10-17,68,59,50,56,51,43,100,72,44,29.87,29.80,29.64,10,9,2,13,5,16,0.66,5,Rain,225
2013-10-18,62,51,39,54,46,35,100,70,39,29.94,29.76,29.62,10,9,2,18,7,26,0.10,4,Rain,270
2013-10-19,63,48,33,49,39,34,93,70,46,29.95,29.87,29.69,10,8,2,18,4,26,0.04,2,Rain,181
2013-10-20,56,46,35,48,38,34,92,70,47,30.03,29.88,29.68,10,10,9,16,6,23,0.00,5,,237
2013-10-21,64,49,33,42,39,34,100,72,43,30.10,30.01,29.90,10,9,2,14,6,18,0.00,2,,181
2013-10-22,56,44,31,49,40,30,89,68,46,29.90,29.80,29.74,10,10,6,17,6,23,0.03,5,Rain,224
2013-10-23,51,41,31,37,34,30,100,78,56,29.82,29.73,29.64,10,10,10,14,3,17,T,6,Rain,234
2013-10-24,46,37,27,33,31,26,92,73,53,29.93,29.82,29.73,10,10,9,18,6,25,T,4,,231
2013-10-25,48,39,30,34,30,25,92,67,42,30.15,30.08,29.94,10,10,10,17,5,22,T,5,,270
2013-10-26,50,42,34,35,32,26,96,69,42,30.15,29.98,29.83,10,10,9,23,8,31,T,6,,191
2013-10-27,51,41,31,36,32,27,89,66,42,30.07,29.92,29.80,10,10,10,17,6,23,0.00,5,,235
2013-10-28,54,38,22,35,29,20,88,64,39,30.40,30.19,30.06,10,10,8,21,6,26,0.00,4,,214
2013-10-29,45,32,19,28,21,17,92,64,36,30.50,30.44,30.37,10,10,10,8,1,10,0.00,0,,72
2013-10-30,48,38,28,37,31,25,100,83,65,30.35,30.28,30.22,10,9,2,10,1,22,0.00,4,,168
2013-10-31,60,44,27,58,41,26,100,93,85,30.25,30.03,29.65,10,4,1,15,4,22,0.43,7,Rain,204